createdAt,value
2022-11-03T00:02:21.917Z,98530.84
2022-11-03T00:04:48.121Z,98542.72
2022-11-03T00:07:14.211Z,98541.75
2022-11-03T00:09:40.376Z,98532.94
2022-11-03T00:12:06.477Z,98503.16
2022-11-03T00:14:32.573Z,98534.47
2022-11-03T00:16:58.709Z,98516.72
2022-11-03T00:19:24.786Z,98513.41
2022-11-03T00:21:50.883Z,98499.50
2022-11-03T00:24:16.989Z,98517.38
2022-11-03T00:26:43.109Z,98520.72
2022-11-03T00:29:09.210Z,98525.34
2022-11-03T00:31:35.323Z,98514.94
2022-11-03T00:34:01.426Z,98517.75
2022-11-03T00:36:27.521Z,98521.53
2022-11-03T00:38:53.646Z,98518.09
2022-11-03T00:41:19.734Z,98525.53
2022-11-03T00:43:45.823Z,98526.50
2022-11-03T00:46:11.936Z,98530.31
2022-11-03T00:48:38.028Z,98522.22
2022-11-03T00:51:04.113Z,98508.63
2022-11-03T00:53:30.229Z,98513.09
2022-11-03T00:55:56.318Z,98517.06
2022-11-03T00:58:22.399Z,98500.84
2022-11-03T01:00:48.572Z,98516.75
2022-11-03T01:03:14.723Z,98511.81
2022-11-03T01:05:40.811Z,98508.97
2022-11-03T01:08:06.928Z,98517.06
2022-11-03T01:10:33.014Z,98504.16
2022-11-03T01:12:59.125Z,98513.09
2022-11-03T01:15:25.293Z,98515.13
2022-11-03T01:17:51.388Z,98516.75
2022-11-03T01:20:17.487Z,98508.16
2022-11-03T01:22:43.609Z,98512.94
2022-11-03T01:25:09.697Z,98503.66
2022-11-03T01:27:35.814Z,98509.44
2022-11-03T01:30:01.936Z,98500.19
2022-11-03T01:32:28.052Z,98500.19
2022-11-03T01:34:54.132Z,98494.69
2022-11-03T01:37:20.745Z,98497.69
2022-11-03T01:39:46.841Z,98496.38
2022-11-03T01:42:12.934Z,98485.59
2022-11-03T01:44:39.039Z,98485.22
2022-11-03T01:47:05.143Z,98479.09
2022-11-03T01:49:31.245Z,98483.25
2022-11-03T01:51:57.356Z,98475.47
2022-11-03T01:54:23.442Z,98474.97
2022-11-03T01:56:49.530Z,98469.88
2022-11-03T01:59:15.636Z,98460.41
2022-11-03T02:01:41.809Z,98469.16
2022-11-03T02:04:08.104Z,98458.22
2022-11-03T02:06:34.217Z,98454.75
2022-11-03T02:09:00.324Z,98452.59
2022-11-03T02:11:26.424Z,98448.97
2022-11-03T02:13:52.545Z,98450.63
2022-11-03T02:16:18.638Z,98445.16
2022-11-03T02:18:44.750Z,98444.50
2022-11-03T02:21:11.217Z,98446.47
2022-11-03T02:23:37.315Z,98428.75
2022-11-03T02:26:03.411Z,98433.56
2022-11-03T02:28:29.544Z,98429.75
2022-11-03T02:30:55.644Z,98424.44
2022-11-03T02:33:22.128Z,98411.19
2022-11-03T02:35:48.379Z,98416.16
2022-11-03T02:38:14.531Z,98411.22
2022-11-03T02:40:40.613Z,98411.38
2022-11-03T02:43:06.977Z,98407.72
2022-11-03T02:45:33.292Z,98406.56
2022-11-03T02:47:59.384Z,98406.94
2022-11-03T02:50:25.506Z,98395.50
2022-11-03T02:52:51.607Z,98390.88
2022-11-03T02:55:17.705Z,98392.34
2022-11-03T02:57:43.828Z,98376.28
2022-11-03T03:00:09.921Z,98374.97
2022-11-03T03:02:36.137Z,98359.06
2022-11-03T03:05:02.302Z,98366.56
2022-11-03T03:07:28.397Z,98373.34
2022-11-03T03:09:54.494Z,98368.50
2022-11-03T03:12:20.644Z,98363.41
2022-11-03T03:14:46.741Z,98368.03
2022-11-03T03:17:12.818Z,98364.38
2022-11-03T03:19:38.944Z,98361.56
2022-11-03T03:22:05.050Z,98345.16
2022-11-03T03:24:31.131Z,98347.00
2022-11-03T03:26:57.237Z,98338.59
2022-11-03T03:29:23.327Z,98352.16
2022-11-03T03:31:49.410Z,98343.22
2022-11-03T03:34:33.431Z,98336.25
2022-11-03T03:37:01.083Z,98342.88
2022-11-03T03:39:27.200Z,98335.09
2022-11-03T03:41:53.284Z,98335.56
2022-11-03T03:44:19.433Z,98332.09
2022-11-03T03:46:45.541Z,98320.69
2022-11-03T03:49:11.624Z,98332.78
2022-11-03T03:51:37.716Z,98332.78
2022-11-03T03:54:03.839Z,98321.38
2022-11-03T03:56:29.933Z,98325.03
2022-11-03T03:58:56.028Z,98315.06
2022-11-03T04:01:22.217Z,98330.13
2022-11-03T04:03:48.397Z,98310.25
2022-11-03T04:06:14.492Z,98317.19
2022-11-03T04:08:40.606Z,98303.47
2022-11-03T04:11:06.716Z,98309.75
2022-11-03T04:13:32.808Z,98316.22
2022-11-03T04:15:58.907Z,98314.38
2022-11-03T04:18:25.001Z,98308.06
2022-11-03T04:20:51.079Z,98294.34
2022-11-03T04:23:17.205Z,98304.78
2022-11-03T04:25:43.304Z,98307.44
2022-11-03T04:28:09.391Z,98297.16
2022-11-03T04:30:35.800Z,98295.16
2022-11-03T04:33:01.904Z,98284.22
2022-11-03T04:35:28.001Z,98293.66
2022-11-03T04:37:54.103Z,98289.94
2022-11-03T04:40:20.254Z,98274.13
2022-11-03T04:42:46.349Z,98277.44
2022-11-03T04:45:12.477Z,98276.78
2022-11-03T04:47:38.556Z,98278.47
2022-11-03T04:50:04.665Z,98276.28
2022-11-03T04:52:30.794Z,98276.47
2022-11-03T04:54:56.878Z,98272.44
2022-11-03T04:57:22.956Z,98259.19
2022-11-03T04:59:49.069Z,98249.97
2022-11-03T05:02:15.157Z,98252.41
2022-11-03T05:04:41.255Z,98253.72
2022-11-03T05:07:07.371Z,98244.78
2022-11-03T05:09:33.495Z,98242.78
2022-11-03T05:11:59.588Z,98249.09
2022-11-03T05:14:25.709Z,98244.78
2022-11-03T05:16:51.803Z,98240.97
2022-11-03T05:19:17.884Z,98232.16
2022-11-03T05:21:44.001Z,98232.66
2022-11-03T05:24:10.128Z,98238.13
2022-11-03T05:26:36.293Z,98230.19
2022-11-03T05:29:02.408Z,98223.25
2022-11-03T05:31:28.494Z,98231.31
2022-11-03T05:33:54.599Z,98220.38
2022-11-03T05:36:20.705Z,98215.75
2022-11-03T05:38:46.801Z,98216.22
2022-11-03T05:41:12.903Z,98210.28
2022-11-03T05:43:39.006Z,98211.91
2022-11-03T05:48:36.098Z,98201.28
2022-11-03T05:51:02.257Z,98208.03
2022-11-03T05:53:28.348Z,98200.91
2022-11-03T05:55:54.446Z,98199.06
2022-11-03T05:58:20.557Z,98203.09
2022-11-03T06:00:48.859Z,98197.59
2022-11-03T06:03:15.199Z,98192.00
2022-11-03T06:05:41.305Z,98192.97
2022-11-03T06:08:07.728Z,98176.69
2022-11-03T06:10:34.044Z,98181.34
2022-11-03T06:13:00.141Z,98185.66
2022-11-03T06:15:26.232Z,98176.16
2022-11-03T06:17:52.322Z,98173.50
2022-11-03T06:20:18.451Z,98173.50
2022-11-03T06:22:44.566Z,98173.34
2022-11-03T06:25:10.667Z,98160.44
2022-11-03T06:27:36.769Z,98173.78
2022-11-03T06:30:02.860Z,98169.66
2022-11-03T06:32:28.967Z,98166.47
2022-11-03T06:34:55.115Z,98173.63
2022-11-03T06:37:21.215Z,98160.19
2022-11-03T06:39:47.318Z,98162.84
2022-11-03T06:42:13.427Z,98158.00
2022-11-03T06:44:39.549Z,98159.09
2022-11-03T06:47:05.635Z,98157.00
2022-11-03T06:49:31.752Z,98159.44
2022-11-03T06:51:57.844Z,98156.44
2022-11-03T06:54:23.940Z,98163.03
2022-11-03T06:56:50.041Z,98160.22
2022-11-03T06:59:16.119Z,98150.59
2022-11-03T07:01:42.289Z,98155.28
2022-11-03T07:04:08.516Z,98151.88
2022-11-03T07:06:34.615Z,98126.38
2022-11-03T07:09:00.744Z,98131.16
2022-11-03T07:11:26.847Z,98116.03
2022-11-03T07:13:52.941Z,98111.38
2022-11-03T07:16:19.269Z,98102.88
2022-11-03T07:18:45.484Z,98106.16
2022-11-03T07:21:11.638Z,98104.16
2022-11-03T07:23:37.767Z,98104.41
2022-11-03T07:26:03.885Z,98090.97
2022-11-03T07:28:29.995Z,98083.19
2022-11-03T07:30:56.094Z,98085.50
2022-11-03T07:33:22.494Z,98079.16
2022-11-03T07:38:35.033Z,98068.66
2022-11-03T07:41:01.186Z,98073.97
2022-11-03T07:43:27.313Z,98072.50
2022-11-03T07:45:53.417Z,98075.16
2022-11-03T07:48:19.515Z,98077.25
2022-11-03T07:50:45.608Z,98066.25
2022-11-03T07:53:11.752Z,98074.66
2022-11-03T07:55:37.845Z,98069.19
2022-11-03T07:58:04.254Z,98064.13
2022-11-03T08:00:30.512Z,98060.91
2022-11-03T08:02:56.612Z,98053.97
2022-11-03T08:05:22.747Z,98053.78
2022-11-03T08:07:48.898Z,98061.94
2022-11-03T08:10:14.998Z,98047.47
2022-11-03T08:12:41.093Z,98034.63
2022-11-03T08:15:07.219Z,98040.78
2022-11-03T08:17:33.316Z,98044.69
2022-11-03T08:19:59.406Z,98044.31
2022-11-03T08:22:25.520Z,98036.00
2022-11-03T08:24:51.650Z,98040.50
2022-11-03T08:27:17.763Z,98027.28
2022-11-03T08:29:43.876Z,98028.19
2022-11-03T08:32:09.972Z,98025.16
2022-11-03T08:34:36.062Z,98024.00
2022-11-03T08:37:02.173Z,98025.66
2022-11-03T08:39:28.284Z,98014.25
2022-11-03T08:41:54.386Z,98012.25
2022-11-03T08:44:21.010Z,98007.38
2022-11-03T08:46:47.103Z,98009.47
2022-11-03T08:49:13.202Z,98006.03
2022-11-03T08:51:44.152Z,98013.81
2022-11-03T08:54:10.820Z,98008.94
2022-11-03T08:56:36.924Z,98020.19
2022-11-03T08:59:03.079Z,98005.69
2022-11-03T09:01:29.353Z,98012.53
2022-11-03T09:03:55.572Z,98018.28
2022-11-03T09:06:21.738Z,98015.00
2022-11-03T09:11:34.009Z,97997.91
2022-11-03T09:14:00.105Z,98006.75
2022-11-03T09:16:26.242Z,97995.16
2022-11-03T09:18:52.357Z,97992.75
2022-11-03T09:21:18.535Z,97984.19
2022-11-03T09:23:44.643Z,97981.94
2022-11-03T09:26:10.755Z,97974.63
2022-11-03T09:28:36.878Z,97966.66
2022-11-03T09:31:02.981Z,97959.69
2022-11-03T09:33:30.944Z,97963.03
2022-11-03T09:35:57.043Z,97961.44
2022-11-03T09:38:23.144Z,97968.00
2022-11-03T09:43:20.281Z,97955.50
2022-11-03T09:45:46.390Z,97946.97
2022-11-03T09:48:12.572Z,97949.66
2022-11-03T09:50:38.864Z,97933.66
2022-11-03T09:53:05.088Z,97922.22
2022-11-03T09:55:31.454Z,97919.75
2022-11-03T09:57:57.565Z,97903.38
2022-11-03T10:00:23.676Z,97904.00
2022-11-03T10:02:49.810Z,97905.84
2022-11-03T10:07:46.959Z,97885.75
2022-11-03T10:10:13.100Z,97892.34
2022-11-03T10:12:39.229Z,97883.72
2022-11-03T10:15:05.324Z,97880.47
2022-11-03T10:17:31.451Z,97875.13
2022-11-03T10:19:57.538Z,97874.09
2022-11-03T10:22:23.629Z,97879.22
2022-11-03T10:24:49.742Z,97878.63
2022-11-03T10:27:15.849Z,97885.78
2022-11-03T10:29:43.792Z,97875.53
2022-11-03T10:32:13.496Z,97875.75
2022-11-03T10:34:39.615Z,97872.66
2022-11-03T10:37:05.735Z,97856.06
2022-11-03T10:39:32.151Z,97824.09
2022-11-03T10:41:58.243Z,97831.44
2022-11-03T10:44:24.352Z,97804.59
2022-11-03T10:46:51.642Z,97795.56
2022-11-03T10:49:17.885Z,97792.06
2022-11-03T10:51:44.000Z,97789.59
2022-11-03T10:54:10.120Z,97787.72
2022-11-03T10:56:36.232Z,97783.22
2022-11-03T10:59:02.357Z,97775.81
2022-11-03T11:01:28.629Z,97763.53
2022-11-03T11:03:54.897Z,97751.00
2022-11-03T11:06:21.030Z,97743.00
2022-11-03T11:08:47.138Z,97756.34
2022-11-03T11:11:13.241Z,97758.19
2022-11-03T11:13:39.335Z,97762.28
2022-11-03T11:16:05.455Z,97753.69
2022-11-03T11:18:31.564Z,97764.97
2022-11-03T11:20:57.665Z,97740.56
2022-11-03T11:23:23.780Z,97737.88
2022-11-03T11:25:49.881Z,97717.16
2022-11-03T11:28:15.972Z,97705.44
2022-11-03T11:30:42.081Z,97697.50
2022-11-03T11:33:08.453Z,97680.63
2022-11-03T11:35:34.974Z,97690.75
2022-11-03T11:38:01.153Z,97678.00
2022-11-03T11:40:27.247Z,97669.59
2022-11-03T11:42:53.346Z,97664.47
2022-11-03T11:45:19.457Z,97661.38
2022-11-03T11:47:45.551Z,97666.28
2022-11-03T11:50:11.662Z,97665.78
2022-11-03T11:52:38.305Z,97654.75
2022-11-03T11:55:04.397Z,97649.16
2022-11-03T11:57:30.487Z,97634.75
2022-11-03T11:59:56.582Z,97621.59
2022-11-03T12:02:22.685Z,97625.88
2022-11-03T12:04:48.797Z,97631.38
2022-11-03T12:07:14.917Z,97609.50
2022-11-03T12:09:41.007Z,97627.28
2022-11-03T12:12:08.841Z,97606.56
2022-11-03T12:14:35.200Z,97598.84
2022-11-03T12:17:01.295Z,97609.91
2022-11-03T12:19:27.402Z,97624.25
2022-11-03T12:21:53.508Z,97618.75
2022-11-03T12:24:19.605Z,97628.19
2022-11-03T12:26:45.697Z,97623.00
2022-11-03T12:29:11.804Z,97622.41
2022-11-03T12:31:37.909Z,97610.16
2022-11-03T12:34:04.013Z,97612.81
2022-11-03T12:36:30.143Z,97596.53
2022-11-03T12:38:56.248Z,97606.75
2022-11-03T12:41:22.358Z,97589.34
2022-11-03T12:43:48.643Z,97562.31
2022-11-03T12:46:14.823Z,97558.59
2022-11-03T12:48:40.919Z,97546.66
2022-11-03T12:51:07.033Z,97540.31
2022-11-03T12:53:33.148Z,97545.81
2022-11-03T12:55:59.239Z,97521.59
2022-11-03T12:58:25.350Z,97534.75
2022-11-03T13:00:55.004Z,97526.31
2022-11-03T13:03:22.511Z,97518.47
2022-11-03T13:05:48.682Z,97520.31
2022-11-03T13:08:14.833Z,97514.91
2022-11-03T13:10:40.958Z,97502.56
2022-11-03T13:13:07.291Z,97499.44
2022-11-03T13:15:33.653Z,97511.06
2022-11-03T13:18:12.947Z,97505.38
2022-11-03T13:20:39.751Z,97509.41
2022-11-03T13:23:06.183Z,97470.31
2022-11-03T13:25:32.697Z,97488.22
2022-11-03T13:27:58.860Z,97476.50
2022-11-03T13:30:24.969Z,97452.88
2022-11-03T13:32:51.077Z,97456.38
2022-11-03T13:35:17.201Z,97451.84
2022-11-03T13:37:43.286Z,97448.38
2022-11-03T13:40:10.742Z,97433.84
2022-11-03T13:42:41.761Z,97418.00
2022-11-03T13:45:07.848Z,97423.75
2022-11-03T13:48:15.483Z,97417.81
2022-11-03T13:50:20.403Z,97422.78
2022-11-03T13:52:46.900Z,97420.88
2022-11-03T14:00:45.422Z,97395.59
2022-11-03T14:05:57.660Z,97385.75
2022-11-03T14:08:23.787Z,97382.72
2022-11-03T14:10:49.883Z,97381.91
2022-11-03T14:13:16.008Z,97377.69
2022-11-03T14:15:42.152Z,97380.81
2022-11-03T14:18:08.265Z,97370.81
2022-11-03T14:20:34.377Z,97365.84
2022-11-03T14:23:00.504Z,97372.88
2022-11-03T14:25:26.603Z,97364.06
2022-11-03T14:27:52.765Z,97358.13
2022-11-03T14:30:18.982Z,97348.88
2022-11-03T14:32:45.079Z,97339.50
2022-11-03T14:35:11.235Z,97330.75
2022-11-03T14:37:37.522Z,97334.22
2022-11-03T14:40:03.718Z,97324.66
2022-11-03T14:42:29.862Z,97324.28
2022-11-03T14:44:55.969Z,97324.72
2022-11-03T14:47:22.083Z,97316.78
2022-11-03T14:49:48.176Z,97315.81
2022-11-03T14:52:14.273Z,97312.09
2022-11-03T14:54:40.369Z,97305.16
2022-11-03T14:57:06.479Z,97299.84
2022-11-03T14:59:32.640Z,97296.63
2022-11-03T15:01:58.867Z,97289.53
2022-11-03T15:04:25.080Z,97288.94
2022-11-03T15:06:51.680Z,97286.47
2022-11-03T15:09:17.777Z,97287.50
2022-11-03T15:11:43.875Z,97278.94
2022-11-03T15:14:09.999Z,97267.03
2022-11-03T15:16:36.091Z,97265.13
2022-11-03T15:19:02.193Z,97260.28
2022-11-03T15:21:28.295Z,97262.16
2022-11-03T15:26:40.479Z,97260.13
2022-11-03T15:29:06.616Z,97260.75
2022-11-03T15:31:32.708Z,97265.31
2022-11-03T15:34:00.850Z,97278.06
2022-11-03T15:36:29.172Z,97288.97
2022-11-03T15:38:55.285Z,97281.00
2022-11-03T15:41:21.399Z,97270.56
2022-11-03T15:43:47.486Z,97272.41
2022-11-03T15:46:14.160Z,97256.13
2022-11-03T15:48:40.735Z,97261.81
2022-11-03T15:51:06.857Z,97258.78
2022-11-03T15:53:32.953Z,97255.09
2022-11-03T15:55:59.049Z,97251.66
2022-11-03T15:58:25.144Z,97247.22
2022-11-03T16:00:52.902Z,97241.91
2022-11-03T16:03:19.641Z,97245.16
2022-11-03T16:05:45.802Z,97235.38
2022-11-03T16:08:11.961Z,97247.69
2022-11-03T16:10:38.106Z,97219.84
2022-11-03T16:13:04.229Z,97225.56
2022-11-03T16:15:30.327Z,97224.00
2022-11-03T16:17:56.440Z,97214.16
2022-11-03T16:20:22.536Z,97206.13
2022-11-03T16:22:48.700Z,97198.31
2022-11-03T16:25:16.772Z,97205.69
2022-11-03T16:27:45.289Z,97205.69
2022-11-03T16:30:11.383Z,97204.53
2022-11-03T16:32:37.506Z,97211.03
2022-11-03T16:35:03.615Z,97192.69
2022-11-03T16:37:29.704Z,97194.31
2022-11-03T16:39:55.833Z,97200.47
2022-11-03T16:42:21.941Z,97188.03
2022-11-03T16:44:48.055Z,97179.25
2022-11-03T16:47:14.182Z,97172.13
2022-11-03T16:49:40.373Z,97166.81
2022-11-03T16:52:06.495Z,97162.56
2022-11-03T16:54:32.985Z,97166.09
2022-11-03T16:56:59.082Z,97166.31
2022-11-03T16:59:25.202Z,97161.44
2022-11-03T17:01:51.406Z,97175.19
2022-11-03T17:04:17.624Z,97177.00
2022-11-03T17:06:43.717Z,97173.75
2022-11-03T17:09:10.321Z,97163.94
2022-11-03T17:11:36.524Z,97163.13
2022-11-03T17:14:02.672Z,97156.78
2022-11-03T17:16:28.785Z,97142.09
2022-11-03T17:18:54.898Z,97144.13
2022-11-03T17:21:20.991Z,97152.09
2022-11-03T17:23:47.105Z,97148.25
2022-11-03T17:26:13.190Z,97145.00
2022-11-03T17:28:39.541Z,97135.00
2022-11-03T17:31:05.701Z,97128.88
2022-11-03T17:33:31.812Z,97127.84
2022-11-03T17:35:57.905Z,97128.88
2022-11-03T17:38:24.009Z,97126.41
2022-11-03T17:40:50.101Z,97120.72
2022-11-03T17:43:16.199Z,97115.63
2022-11-03T17:45:42.312Z,97108.88
2022-11-03T17:48:08.407Z,97106.47
2022-11-03T17:50:34.512Z,97108.09
2022-11-03T17:53:00.621Z,97104.63
2022-11-03T17:55:26.712Z,97099.94
2022-11-03T17:57:52.817Z,97103.41
2022-11-03T18:00:18.942Z,97108.28
2022-11-03T18:02:45.123Z,97090.13
2022-11-03T18:05:14.128Z,97086.06
2022-11-03T18:07:43.451Z,97070.16
2022-11-03T18:10:09.528Z,97063.59
2022-11-03T18:12:35.624Z,97060.34
2022-11-03T18:15:01.765Z,97056.25
2022-11-03T18:17:27.855Z,97060.34
2022-11-03T18:19:54.005Z,97048.94
2022-11-03T18:22:20.129Z,97057.69
2022-11-03T18:24:46.220Z,97047.09
2022-11-03T18:27:12.340Z,97040.59
2022-11-03T18:29:38.457Z,97044.06
2022-11-03T18:32:04.550Z,97051.38
2022-11-03T18:34:30.637Z,97040.78
2022-11-03T18:36:56.748Z,97037.53
2022-11-03T18:39:22.854Z,97036.28
2022-11-03T18:41:48.952Z,97022.41
2022-11-03T18:44:15.064Z,97026.09
2022-11-03T18:46:41.165Z,97013.03
2022-11-03T18:49:07.276Z,97014.66
2022-11-03T18:51:33.393Z,97009.75
2022-11-03T18:53:59.486Z,97013.19
2022-11-03T18:56:25.577Z,97003.63
2022-11-03T18:58:51.880Z,96990.56
2022-11-03T19:01:18.066Z,96990.59
2022-11-03T19:03:44.299Z,96981.19
2022-11-03T19:06:10.424Z,96989.94
2022-11-03T19:08:36.517Z,96987.09
2022-11-03T19:11:02.609Z,96987.47
2022-11-03T19:13:29.219Z,96990.72
2022-11-03T19:15:55.332Z,96987.28
2022-11-03T19:18:21.434Z,96982.38
2022-11-03T19:20:47.603Z,96987.31
2022-11-03T19:23:13.698Z,96987.53
2022-11-03T19:25:39.779Z,96985.88
2022-11-03T19:28:05.878Z,96984.09
2022-11-03T19:30:31.975Z,96980.59
2022-11-03T19:32:58.077Z,96970.84
2022-11-03T19:35:24.190Z,96967.16
2022-11-03T19:37:50.273Z,96978.78
2022-11-03T19:40:16.388Z,96973.69
2022-11-03T19:42:42.498Z,96970.41
2022-11-03T19:45:08.588Z,96962.91
2022-11-03T19:47:34.765Z,96955.31
2022-11-03T19:50:00.920Z,96946.97
2022-11-03T19:52:27.021Z,96957.97
2022-11-03T19:54:53.121Z,96948.22
2022-11-03T19:57:19.228Z,96948.25
2022-11-03T19:59:45.331Z,96949.69
2022-11-03T20:02:11.530Z,96947.03
2022-11-03T20:04:37.712Z,96949.88
2022-11-03T20:07:03.798Z,96956.59
2022-11-03T20:09:29.898Z,96950.72
2022-11-03T20:11:56.020Z,96953.75
2022-11-03T20:14:22.117Z,96951.94
2022-11-03T20:16:48.225Z,96947.66
2022-11-03T20:19:14.352Z,96948.69
2022-11-03T20:21:40.445Z,96949.13
2022-11-03T20:24:06.532Z,96953.97
2022-11-03T20:26:32.639Z,96951.34
2022-11-03T20:28:58.734Z,96941.16
2022-11-03T20:31:24.861Z,96941.34
2022-11-03T20:33:50.964Z,96942.16
2022-11-03T20:36:17.055Z,96938.88
2022-11-03T20:38:43.148Z,96939.28
2022-11-03T20:41:09.289Z,96944.19
2022-11-03T20:43:35.401Z,96935.63
2022-11-03T20:46:01.496Z,96943.03
2022-11-03T20:48:27.611Z,96955.50
2022-11-03T20:50:53.711Z,96948.34
2022-11-03T20:53:19.805Z,96952.59
2022-11-03T20:55:45.902Z,96951.16
2022-11-03T20:58:12.016Z,96945.44
2022-11-03T21:00:38.104Z,96943.13
2022-11-03T21:03:04.435Z,96927.84
2022-11-03T21:05:30.589Z,96932.75
2022-11-03T21:07:56.697Z,96929.47
2022-11-03T21:10:22.816Z,96931.72
2022-11-03T21:12:48.915Z,96933.19
2022-11-03T21:15:15.009Z,96939.69
2022-11-03T21:17:41.608Z,96933.00
2022-11-03T21:20:07.729Z,96914.03
2022-11-03T21:25:20.216Z,96921.53
2022-11-03T21:27:46.324Z,96914.84
2022-11-03T21:30:12.580Z,96914.03
2022-11-03T21:32:38.711Z,96921.13
2022-11-03T21:35:04.793Z,96929.75
2022-11-03T21:37:30.880Z,96914.44
2022-11-03T21:39:57.005Z,96933.22
2022-11-03T21:42:23.103Z,96933.22
2022-11-03T21:44:49.192Z,96937.47
2022-11-03T21:47:15.301Z,96939.94
2022-11-03T21:49:41.394Z,96918.91
2022-11-03T21:52:07.492Z,96921.81
2022-11-03T21:54:33.587Z,96914.06
2022-11-03T21:56:59.674Z,96921.38
2022-11-03T21:59:25.771Z,96927.09
2022-11-03T22:01:51.932Z,96932.19
2022-11-03T22:04:18.099Z,96936.47
2022-11-03T22:06:44.188Z,96936.69
2022-11-03T22:09:10.296Z,96953.56
2022-11-03T22:11:36.384Z,96952.97
2022-11-03T22:14:02.473Z,96951.16
2022-11-03T22:16:28.575Z,96950.31
2022-11-03T22:18:54.663Z,96957.88
2022-11-03T22:21:20.747Z,96931.34
2022-11-03T22:23:47.360Z,96940.59
2022-11-03T22:26:13.463Z,96947.66
2022-11-03T22:28:39.546Z,96948.72
2022-11-03T22:31:05.661Z,96931.00
2022-11-03T22:33:31.753Z,96940.16
2022-11-03T22:35:57.913Z,96964.69
2022-11-03T22:38:24.029Z,96961.00
2022-11-03T22:40:50.129Z,96971.56
2022-11-03T22:43:16.229Z,96975.66
2022-11-03T22:45:42.322Z,96963.41
2022-11-03T22:48:08.415Z,96945.88
2022-11-03T22:50:34.507Z,96957.28
2022-11-03T22:53:00.627Z,96966.66
2022-11-03T22:55:26.720Z,96966.09
2022-11-03T22:57:52.806Z,96962.22
2022-11-03T23:00:18.899Z,96983.81
2022-11-03T23:02:45.000Z,96967.31
2022-11-03T23:05:11.084Z,96961.41
2022-11-03T23:07:41.183Z,96962.41
2022-11-03T23:10:07.686Z,96978.75
2022-11-03T23:12:33.809Z,96964.88
2022-11-03T23:14:59.908Z,96966.91
2022-11-03T23:17:26.006Z,96964.25
2022-11-03T23:19:52.105Z,96961.44
2022-11-03T23:22:18.224Z,96951.03
2022-11-03T23:24:45.568Z,96935.94
2022-11-03T23:27:11.979Z,96942.69
2022-11-03T23:29:38.080Z,96942.25
2022-11-03T23:32:04.181Z,96943.69
2022-11-03T23:34:30.262Z,96945.31
2022-11-03T23:36:56.373Z,96966.34
2022-11-03T23:39:22.477Z,96970.63
2022-11-03T23:41:48.562Z,96987.34
2022-11-03T23:44:14.659Z,96975.72
2022-11-03T23:46:40.749Z,96996.94
2022-11-03T23:49:06.844Z,97005.09
2022-11-03T23:51:32.949Z,97013.69
2022-11-03T23:53:59.037Z,97011.25
2022-11-03T23:56:25.128Z,97057.50
2022-11-03T23:58:51.239Z,97052.19
